createdAt,value
2022-12-31T00:01:45.397Z,25.55
2022-12-31T00:04:11.953Z,17.67
2022-12-31T00:06:38.421Z,11.52
2022-12-31T00:09:06.018Z,9.90
2022-12-31T00:11:32.616Z,20.10
2022-12-31T00:13:59.150Z,10.07
2022-12-31T00:16:28.358Z,9.85
2022-12-31T00:18:56.075Z,20.95
2022-12-31T00:21:22.624Z,16.42
2022-12-31T00:23:49.210Z,10.27
2022-12-31T00:26:17.362Z,12.75
2022-12-31T00:28:43.929Z,39.15
2022-12-31T00:31:10.277Z,25.48
2022-12-31T00:33:36.804Z,45.70
2022-12-31T00:36:17.843Z,33.78
2022-12-31T00:38:45.141Z,15.55
2022-12-31T00:41:11.610Z,21.20
2022-12-31T00:43:38.164Z,25.20
2022-12-31T00:46:05.084Z,14.38
2022-12-31T00:48:32.138Z,13.35
2022-12-31T00:50:58.608Z,12.05
2022-12-31T00:53:25.277Z,14.85
2022-12-31T00:55:51.922Z,12.15
2022-12-31T00:58:18.397Z,24.67
2022-12-31T01:00:44.862Z,29.25
2022-12-31T01:03:11.347Z,29.90
2022-12-31T01:05:37.846Z,30.48
2022-12-31T01:08:04.953Z,12.50
2022-12-31T01:10:49.960Z,13.55
2022-12-31T01:13:16.414Z,16.17
2022-12-31T01:15:42.928Z,31.70
2022-12-31T01:18:09.452Z,35.50
2022-12-31T01:20:40.437Z,51.75
2022-12-31T01:23:07.148Z,62.10
2022-12-31T01:25:39.532Z,63.33
2022-12-31T01:28:06.153Z,82.80
2022-12-31T01:30:32.967Z,55.33
2022-12-31T01:32:59.476Z,23.13
2022-12-31T01:35:25.951Z,18.77
2022-12-31T01:37:52.431Z,27.67
2022-12-31T01:40:18.902Z,20.30
2022-12-31T01:42:45.640Z,34.70
2022-12-31T01:45:13.252Z,80.05
2022-12-31T01:47:48.211Z,38.22
2022-12-31T01:50:18.276Z,73.50
2022-12-31T01:52:46.191Z,81.32
2022-12-31T01:55:33.747Z,147.95
2022-12-31T01:58:06.253Z,53.05
2022-12-31T02:00:32.778Z,63.38
2022-12-31T02:02:59.304Z,46.28
2022-12-31T02:05:30.889Z,50.70
2022-12-31T02:07:57.644Z,80.43
2022-12-31T02:10:24.330Z,68.28
2022-12-31T02:12:50.855Z,54.28
2022-12-31T02:15:17.824Z,58.78
2022-12-31T02:18:12.146Z,69.60
2022-12-31T02:20:56.467Z,53.50
2022-12-31T02:23:30.656Z,44.13
2022-12-31T02:26:06.170Z,46.83
2022-12-31T02:28:54.102Z,38.50
2022-12-31T02:31:34.795Z,58.90
2022-12-31T02:34:28.176Z,96.10
2022-12-31T02:36:55.103Z,61.00
2022-12-31T02:39:21.580Z,71.70
2022-12-31T02:41:52.067Z,114.18
2022-12-31T02:44:26.906Z,137.60
2022-12-31T02:47:08.320Z,142.93
2022-12-31T02:49:40.799Z,187.30
2022-12-31T02:52:28.687Z,215.93
2022-12-31T02:55:37.170Z,159.95
2022-12-31T02:58:51.557Z,159.35
2022-12-31T03:01:49.976Z,200.60
2022-12-31T03:04:36.077Z,150.77
2022-12-31T03:07:07.182Z,145.00
2022-12-31T03:09:34.497Z,84.55
2022-12-31T03:12:19.599Z,41.45
2022-12-31T03:14:46.062Z,35.85
2022-12-31T03:17:12.535Z,79.80
2022-12-31T03:19:57.535Z,40.80
2022-12-31T03:22:29.666Z,30.45
2022-12-31T03:25:20.564Z,48.65
2022-12-31T03:27:47.143Z,53.65
2022-12-31T03:30:14.703Z,84.70
2022-12-31T03:32:41.469Z,94.30
2022-12-31T03:35:08.691Z,44.53
2022-12-31T03:37:35.165Z,46.03
2022-12-31T03:40:01.625Z,62.25
2022-12-31T03:42:28.095Z,60.30
2022-12-31T03:44:54.566Z,28.33
2022-12-31T03:47:21.047Z,33.85
2022-12-31T03:49:47.514Z,23.05
2022-12-31T03:52:14.265Z,17.10
2022-12-31T03:54:40.796Z,19.52
2022-12-31T03:57:10.137Z,22.17
2022-12-31T03:59:36.609Z,23.77
2022-12-31T04:02:03.339Z,24.95
2022-12-31T04:04:29.948Z,190.25
2022-12-31T04:06:56.407Z,295.60
2022-12-31T04:09:23.150Z,307.55
2022-12-31T04:11:49.657Z,327.90
2022-12-31T04:14:17.214Z,184.20
2022-12-31T04:16:44.387Z,114.32
2022-12-31T04:19:11.325Z,21.60
2022-12-31T04:21:37.794Z,19.92
2022-12-31T04:24:04.606Z,23.33
2022-12-31T04:26:31.085Z,38.03
2022-12-31T04:28:57.599Z,36.55
2022-12-31T04:31:24.082Z,36.92
2022-12-31T04:33:50.597Z,20.25
2022-12-31T04:36:17.876Z,19.00
2022-12-31T04:38:44.407Z,21.67
2022-12-31T04:41:16.864Z,20.20
2022-12-31T04:43:44.777Z,18.83
2022-12-31T04:46:11.361Z,22.40
2022-12-31T04:48:38.009Z,25.88
2022-12-31T04:51:04.611Z,30.38
2022-12-31T04:53:31.308Z,24.08
2022-12-31T04:55:57.818Z,31.55
2022-12-31T04:58:24.291Z,26.48
2022-12-31T05:00:51.311Z,29.67
2022-12-31T05:03:18.453Z,31.08
2022-12-31T05:05:44.939Z,36.33
2022-12-31T05:08:11.611Z,33.40
2022-12-31T05:10:41.458Z,27.52
2022-12-31T05:13:07.964Z,25.30
2022-12-31T05:15:34.424Z,28.80
2022-12-31T05:18:00.894Z,28.13
2022-12-31T05:20:27.378Z,28.85
2022-12-31T05:22:53.826Z,29.98
2022-12-31T05:25:20.290Z,29.45
2022-12-31T05:27:46.751Z,22.27
2022-12-31T05:30:13.442Z,16.17
2022-12-31T05:32:39.949Z,16.02
2022-12-31T05:35:07.304Z,14.70
2022-12-31T05:37:33.766Z,18.80
2022-12-31T05:40:00.243Z,22.27
2022-12-31T05:42:26.780Z,21.60
2022-12-31T05:44:53.257Z,19.20
2022-12-31T05:47:19.729Z,19.92
2022-12-31T05:49:46.198Z,21.80
2022-12-31T05:52:12.666Z,22.30
2022-12-31T05:54:39.145Z,21.58
2022-12-31T05:57:05.785Z,55.50
2022-12-31T05:59:32.322Z,78.35
2022-12-31T06:01:58.783Z,43.25
2022-12-31T06:04:25.259Z,72.32
2022-12-31T06:06:51.830Z,37.60
2022-12-31T06:09:18.835Z,30.33
2022-12-31T06:11:45.322Z,21.98
2022-12-31T06:14:12.109Z,25.75
2022-12-31T06:16:39.729Z,34.40
2022-12-31T06:19:06.480Z,76.82
2022-12-31T06:21:32.992Z,159.15
2022-12-31T06:23:59.683Z,195.57
2022-12-31T06:26:26.725Z,96.00
2022-12-31T06:28:53.242Z,80.05
2022-12-31T06:31:19.944Z,31.95
2022-12-31T06:33:46.932Z,30.38
2022-12-31T06:36:14.666Z,23.98
2022-12-31T06:38:41.950Z,43.60
2022-12-31T06:41:12.283Z,39.95
2022-12-31T06:43:38.841Z,24.23
2022-12-31T06:46:06.367Z,21.23
2022-12-31T06:48:33.171Z,41.58
2022-12-31T06:51:09.553Z,24.45
2022-12-31T06:56:14.035Z,13.60
2022-12-31T06:58:40.911Z,16.75
2022-12-31T07:01:19.427Z,12.98
2022-12-31T07:04:05.775Z,15.57
2022-12-31T07:06:44.276Z,408.52
2022-12-31T07:09:33.523Z,135.10
2022-12-31T07:12:12.186Z,151.45
2022-12-31T07:14:44.125Z,137.70
2022-12-31T07:17:45.705Z,39.95
2022-12-31T07:20:14.098Z,40.50
2022-12-31T07:22:40.829Z,37.03
2022-12-31T07:25:07.885Z,34.95
2022-12-31T07:27:56.545Z,37.70
2022-12-31T07:30:25.472Z,40.22
2022-12-31T07:33:20.929Z,32.00
2022-12-31T07:36:02.185Z,24.10
2022-12-31T07:38:28.496Z,31.35
2022-12-31T07:41:09.299Z,23.42
2022-12-31T07:43:59.145Z,24.45
2022-12-31T07:46:49.666Z,23.08
2022-12-31T07:49:16.252Z,25.90
2022-12-31T07:51:43.191Z,38.88
2022-12-31T07:54:13.823Z,23.67
2022-12-31T07:56:40.520Z,26.52
2022-12-31T07:59:08.515Z,27.08
2022-12-31T08:01:49.363Z,26.13
2022-12-31T08:04:21.638Z,25.55
2022-12-31T08:07:03.832Z,27.42
2022-12-31T08:09:44.245Z,29.48
2022-12-31T08:12:10.795Z,25.73
2022-12-31T08:14:44.254Z,26.48
2022-12-31T08:17:14.923Z,22.17
2022-12-31T08:19:41.712Z,21.77
2022-12-31T08:22:34.935Z,22.27
2022-12-31T08:25:31.221Z,23.90
2022-12-31T08:28:15.249Z,22.65
2022-12-31T08:30:58.151Z,22.50
2022-12-31T08:33:52.309Z,23.92
2022-12-31T08:36:30.344Z,23.08
2022-12-31T08:39:01.491Z,24.80
2022-12-31T08:41:43.165Z,26.02
2022-12-31T08:44:36.455Z,26.05
2022-12-31T08:47:02.773Z,25.77
2022-12-31T08:49:30.896Z,27.42
2022-12-31T08:51:58.412Z,29.00
2022-12-31T08:54:25.218Z,28.50
2022-12-31T08:57:03.223Z,27.63
2022-12-31T09:00:03.788Z,28.77
2022-12-31T09:03:07.422Z,27.75
2022-12-31T09:06:06.146Z,27.02
2022-12-31T09:08:44.451Z,29.40
2022-12-31T09:11:33.642Z,25.52
2022-12-31T09:14:09.315Z,27.73
2022-12-31T09:17:13.624Z,24.55
2022-12-31T09:19:40.486Z,25.60
2022-12-31T09:22:07.050Z,27.35
2022-12-31T09:24:33.805Z,25.58
2022-12-31T09:27:10.431Z,26.83
2022-12-31T09:29:51.949Z,23.80
2022-12-31T09:32:26.490Z,22.38
2022-12-31T09:35:30.364Z,22.35
2022-12-31T09:38:05.301Z,22.83
2022-12-31T09:40:51.208Z,22.60
2022-12-31T09:43:35.812Z,25.52
2022-12-31T09:46:19.485Z,24.58
2022-12-31T09:49:28.389Z,25.10
2022-12-31T09:52:20.908Z,23.10
2022-12-31T09:54:58.089Z,22.10
2022-12-31T09:57:34.731Z,22.95
2022-12-31T10:00:36.240Z,23.55
2022-12-31T10:03:02.823Z,23.42
2022-12-31T10:05:50.915Z,24.65
2022-12-31T10:08:31.892Z,23.77
2022-12-31T10:11:06.753Z,22.52
2022-12-31T10:13:40.785Z,23.20
2022-12-31T10:16:20.470Z,20.90
2022-12-31T10:18:52.954Z,25.48
2022-12-31T10:21:22.342Z,23.58
2022-12-31T10:24:13.628Z,20.23
2022-12-31T10:27:04.796Z,22.70
2022-12-31T10:30:03.382Z,21.80
2022-12-31T10:32:43.077Z,24.23
2022-12-31T10:35:31.315Z,21.30
2022-12-31T10:38:34.375Z,23.17
2022-12-31T10:41:28.887Z,23.55
2022-12-31T10:44:14.075Z,24.30
2022-12-31T10:46:54.648Z,24.23
2022-12-31T10:49:26.900Z,25.05
2022-12-31T10:52:22.084Z,28.48
2022-12-31T10:55:24.145Z,33.35
2022-12-31T10:58:28.360Z,27.55
2022-12-31T11:01:25.463Z,29.10
2022-12-31T11:04:16.782Z,27.52
2022-12-31T11:07:03.733Z,29.65
2022-12-31T11:10:06.672Z,30.17
2022-12-31T11:12:54.985Z,31.05
2022-12-31T11:15:21.353Z,30.02
2022-12-31T11:18:02.341Z,27.30
2022-12-31T11:20:52.036Z,29.08
2022-12-31T11:23:47.321Z,28.23
2022-12-31T11:26:35.007Z,28.25
2022-12-31T11:29:08.564Z,27.60
2022-12-31T11:31:44.692Z,28.88
2022-12-31T11:34:40.090Z,27.63
2022-12-31T11:37:13.050Z,27.25
2022-12-31T11:40:14.906Z,27.17
2022-12-31T11:43:11.702Z,23.73
2022-12-31T11:46:02.084Z,26.58
2022-12-31T11:48:53.277Z,29.67
2022-12-31T11:51:37.494Z,27.73
2022-12-31T11:54:28.823Z,26.90
2022-12-31T11:57:16.639Z,28.20
2022-12-31T11:59:43.108Z,25.83
2022-12-31T12:02:26.116Z,24.88
2022-12-31T12:04:53.012Z,23.40
2022-12-31T12:07:19.516Z,23.80
2022-12-31T12:09:46.340Z,21.15
2022-12-31T12:12:12.861Z,22.02
2022-12-31T12:14:40.941Z,24.45
2022-12-31T12:17:09.669Z,21.63
2022-12-31T12:19:43.218Z,21.45
2022-12-31T12:22:11.349Z,22.38
2022-12-31T12:24:37.849Z,23.35
2022-12-31T12:27:04.477Z,27.98
2022-12-31T12:29:34.507Z,27.40
2022-12-31T12:32:05.885Z,34.40
2022-12-31T12:34:37.196Z,117.28
2022-12-31T12:37:03.726Z,21.05
2022-12-31T12:39:31.990Z,22.48
2022-12-31T12:42:08.343Z,23.42
2022-12-31T12:44:35.912Z,23.70
2022-12-31T12:47:03.357Z,22.10
2022-12-31T12:49:33.141Z,23.08
2022-12-31T12:52:23.023Z,22.70
2022-12-31T12:55:05.700Z,22.38
2022-12-31T12:58:08.096Z,38.25
2022-12-31T13:00:49.644Z,20.45
2022-12-31T13:04:00.017Z,21.52
2022-12-31T13:06:53.254Z,21.17
2022-12-31T13:09:38.629Z,23.38
2022-12-31T13:12:13.784Z,19.92
2022-12-31T13:14:44.304Z,19.92
2022-12-31T13:17:32.513Z,20.27
2022-12-31T13:20:03.567Z,21.42
2022-12-31T13:22:34.409Z,22.10
2022-12-31T13:25:21.939Z,21.88
2022-12-31T13:27:50.285Z,22.33
2022-12-31T13:30:31.977Z,20.67
2022-12-31T13:33:05.151Z,22.85
2022-12-31T13:35:54.445Z,22.65
2022-12-31T13:38:33.527Z,21.55
2022-12-31T13:41:09.172Z,23.85
2022-12-31T13:44:00.611Z,21.60
2022-12-31T13:46:45.834Z,21.65
2022-12-31T13:49:40.245Z,36.20
2022-12-31T13:52:36.100Z,23.38
2022-12-31T13:55:20.743Z,24.17
2022-12-31T13:58:15.123Z,21.27
2022-12-31T14:00:47.605Z,20.50
2022-12-31T14:03:35.797Z,20.15
2022-12-31T14:06:21.131Z,23.00
2022-12-31T14:08:47.605Z,23.88
2022-12-31T14:11:25.166Z,25.50
2022-12-31T14:13:57.713Z,21.60
2022-12-31T14:16:36.183Z,23.05
2022-12-31T14:19:18.807Z,19.98
2022-12-31T14:22:08.294Z,16.88
2022-12-31T14:24:51.083Z,15.67
2022-12-31T14:27:30.943Z,13.98
2022-12-31T14:29:59.667Z,14.30
2022-12-31T14:32:32.103Z,15.07
2022-12-31T14:35:24.610Z,17.85
2022-12-31T14:37:56.783Z,15.73
2022-12-31T14:40:41.521Z,17.52
2022-12-31T14:43:23.144Z,15.75
2022-12-31T14:46:10.249Z,17.67
2022-12-31T14:49:02.601Z,16.77
2022-12-31T14:51:32.078Z,16.70
2022-12-31T14:53:58.788Z,23.73
2022-12-31T14:56:42.520Z,15.68
2022-12-31T14:59:50.496Z,17.15
2022-12-31T15:02:27.103Z,16.13
2022-12-31T15:05:11.898Z,16.30
2022-12-31T15:07:47.409Z,27.33
2022-12-31T15:10:21.440Z,28.88
2022-12-31T15:13:05.045Z,42.08
2022-12-31T15:15:50.155Z,40.65
2022-12-31T15:18:27.957Z,59.35
2022-12-31T15:21:23.395Z,34.30
2022-12-31T15:23:49.873Z,34.53
2022-12-31T15:26:25.858Z,36.75
2022-12-31T15:29:05.943Z,34.75
2022-12-31T15:31:33.124Z,30.65
2022-12-31T15:34:07.074Z,29.38
2022-12-31T15:36:40.886Z,31.73
2022-12-31T15:39:33.295Z,36.08
2022-12-31T15:44:50.093Z,29.13
2022-12-31T15:47:37.183Z,29.08
2022-12-31T15:50:06.468Z,26.33
2022-12-31T15:52:42.616Z,27.87
2022-12-31T15:55:16.953Z,27.55
2022-12-31T15:57:43.449Z,28.60
2022-12-31T16:00:21.304Z,28.90
2022-12-31T16:02:48.199Z,25.13
2022-12-31T16:05:19.494Z,28.75
2022-12-31T16:07:46.019Z,27.52
2022-12-31T16:10:16.977Z,31.58
2022-12-31T16:12:45.479Z,26.40
2022-12-31T16:15:41.353Z,27.70
2022-12-31T16:18:14.668Z,22.88
2022-12-31T16:20:45.616Z,26.27
2022-12-31T16:23:20.338Z,148.05
2022-12-31T16:25:46.875Z,43.85
2022-12-31T16:28:18.740Z,23.48
2022-12-31T16:30:45.234Z,21.05
2022-12-31T16:33:13.835Z,20.63
2022-12-31T16:35:40.373Z,20.17
2022-12-31T16:38:12.558Z,20.77
2022-12-31T16:40:40.412Z,21.23
2022-12-31T16:43:30.602Z,20.38
2022-12-31T16:45:58.063Z,20.08
2022-12-31T16:48:24.593Z,19.75
2022-12-31T16:50:53.227Z,21.80
2022-12-31T16:53:21.023Z,22.38
2022-12-31T16:55:52.919Z,19.85
2022-12-31T16:58:24.068Z,19.52
2022-12-31T17:00:50.562Z,18.80
2022-12-31T17:03:17.885Z,19.92
2022-12-31T17:06:07.342Z,18.48
2022-12-31T17:09:09.001Z,30.27
2022-12-31T17:11:55.257Z,44.10
2022-12-31T17:14:25.967Z,24.73
2022-12-31T17:17:06.888Z,21.02
2022-12-31T17:19:55.937Z,21.63
2022-12-31T17:22:37.229Z,21.50
2022-12-31T17:25:24.910Z,20.35
2022-12-31T17:28:00.137Z,20.13
2022-12-31T17:30:29.769Z,22.67
2022-12-31T17:33:08.857Z,29.55
2022-12-31T17:35:36.755Z,26.55
2022-12-31T17:38:21.665Z,24.50
2022-12-31T17:40:51.910Z,25.08
2022-12-31T17:43:20.224Z,24.15
2022-12-31T17:45:47.007Z,36.30
2022-12-31T17:48:14.563Z,24.00
2022-12-31T17:50:51.043Z,27.65
2022-12-31T17:53:17.602Z,23.48
2022-12-31T17:55:48.318Z,25.48
2022-12-31T17:58:23.560Z,22.90
2022-12-31T18:00:54.441Z,25.80
2022-12-31T18:03:21.051Z,24.88
2022-12-31T18:05:47.759Z,33.47
2022-12-31T18:08:14.286Z,26.50
2022-12-31T18:10:41.294Z,22.75
2022-12-31T18:13:14.212Z,22.50
2022-12-31T18:15:40.809Z,21.80
2022-12-31T18:18:27.689Z,20.70
2022-12-31T18:21:05.125Z,21.60
2022-12-31T18:23:46.034Z,22.23
2022-12-31T18:26:17.096Z,22.15
2022-12-31T18:28:43.603Z,20.77
2022-12-31T18:31:15.086Z,20.15
2022-12-31T18:33:41.624Z,21.85
2022-12-31T18:36:12.635Z,22.27
2022-12-31T18:38:39.517Z,20.55
2022-12-31T18:41:06.073Z,21.08
2022-12-31T18:43:32.571Z,23.88
2022-12-31T18:45:59.214Z,21.27
2022-12-31T18:48:25.866Z,21.67
2022-12-31T18:50:52.342Z,22.55
2022-12-31T18:53:20.379Z,22.55
2022-12-31T18:55:54.371Z,21.13
2022-12-31T18:58:21.030Z,23.30
2022-12-31T19:00:47.605Z,22.20
2022-12-31T19:03:18.392Z,23.83
2022-12-31T19:05:45.662Z,20.42
2022-12-31T19:08:12.164Z,22.83
2022-12-31T19:10:38.792Z,22.05
2022-12-31T19:13:05.313Z,24.92
2022-12-31T19:15:41.610Z,24.42
2022-12-31T19:18:09.555Z,23.52
2022-12-31T19:20:36.017Z,22.67
2022-12-31T19:23:02.513Z,24.40
2022-12-31T19:25:33.682Z,23.15
2022-12-31T19:28:03.218Z,22.05
2022-12-31T19:30:31.510Z,23.90
2022-12-31T19:32:58.063Z,22.10
2022-12-31T19:35:24.591Z,22.10
2022-12-31T19:37:51.729Z,22.00
2022-12-31T19:40:23.580Z,22.27
2022-12-31T19:42:50.559Z,22.25
2022-12-31T19:45:19.347Z,22.80
2022-12-31T19:47:45.977Z,25.23
2022-12-31T19:50:13.905Z,23.23
2022-12-31T19:52:40.429Z,23.75
2022-12-31T19:55:07.320Z,24.35
2022-12-31T19:57:33.779Z,23.48
2022-12-31T20:00:00.232Z,22.65
2022-12-31T20:02:27.055Z,23.70
2022-12-31T20:04:53.647Z,24.85
2022-12-31T20:07:26.854Z,25.33
2022-12-31T20:09:53.644Z,25.63
2022-12-31T20:12:20.113Z,24.45
2022-12-31T20:14:46.586Z,24.70
2022-12-31T20:17:13.040Z,22.92
2022-12-31T20:19:39.697Z,24.83
2022-12-31T20:22:06.160Z,23.48
2022-12-31T20:24:32.630Z,25.17
2022-12-31T20:26:59.127Z,23.23
2022-12-31T20:29:25.607Z,26.73
2022-12-31T20:31:52.107Z,21.95
2022-12-31T20:34:18.587Z,21.63
2022-12-31T20:36:45.043Z,21.92
2022-12-31T20:39:11.541Z,21.60
2022-12-31T20:41:38.014Z,22.58
2022-12-31T20:44:04.564Z,23.17
2022-12-31T20:46:31.168Z,22.27
2022-12-31T20:49:01.356Z,23.35
2022-12-31T20:51:29.036Z,25.92
2022-12-31T20:53:57.422Z,25.00
2022-12-31T20:56:25.512Z,23.35
2022-12-31T20:58:51.998Z,24.83
2022-12-31T21:01:18.741Z,28.75
2022-12-31T21:06:32.430Z,26.23
2022-12-31T21:08:59.935Z,26.38
2022-12-31T21:11:44.935Z,23.85
2022-12-31T21:14:11.397Z,23.00
2022-12-31T21:16:37.944Z,22.90
2022-12-31T21:19:05.372Z,23.90
2022-12-31T21:21:31.889Z,22.98
2022-12-31T21:23:58.382Z,25.58
2022-12-31T21:26:24.859Z,20.77
2022-12-31T21:28:52.347Z,21.85
2022-12-31T21:31:18.948Z,23.23
2022-12-31T21:33:46.273Z,19.50
2022-12-31T21:36:12.844Z,21.75
2022-12-31T21:38:39.446Z,21.08
2022-12-31T21:41:06.482Z,21.00
2022-12-31T21:43:33.245Z,20.80
2022-12-31T21:46:03.818Z,21.30
2022-12-31T21:48:30.623Z,22.98
2022-12-31T21:51:10.598Z,22.35
2022-12-31T21:53:37.624Z,20.20
2022-12-31T21:56:16.000Z,21.90
2022-12-31T21:58:44.027Z,19.90
2022-12-31T22:01:39.483Z,20.15
2022-12-31T22:04:07.959Z,22.52
2022-12-31T22:06:39.512Z,19.95
2022-12-31T22:09:05.987Z,22.58
2022-12-31T22:11:32.448Z,20.95
2022-12-31T22:13:58.971Z,20.08
2022-12-31T22:16:25.471Z,19.65
2022-12-31T22:18:55.102Z,22.35
2022-12-31T22:21:23.070Z,21.13
2022-12-31T22:23:51.722Z,22.63
2022-12-31T22:26:19.780Z,21.30
2022-12-31T22:28:46.316Z,21.65
2022-12-31T22:31:17.492Z,24.88
2022-12-31T22:33:44.122Z,19.40
2022-12-31T22:36:12.283Z,21.20
2022-12-31T22:38:38.755Z,23.42
2022-12-31T22:41:13.286Z,23.30
2022-12-31T22:43:41.881Z,21.95
2022-12-31T22:46:10.331Z,22.33
2022-12-31T22:48:37.358Z,20.77
2022-12-31T22:51:03.926Z,21.48
2022-12-31T22:53:30.419Z,22.20
2022-12-31T22:55:56.896Z,23.42
2022-12-31T22:58:23.872Z,23.80
2022-12-31T23:00:50.476Z,23.27
2022-12-31T23:03:17.178Z,35.63
2022-12-31T23:05:43.754Z,75.07
2022-12-31T23:08:18.684Z,49.40
2022-12-31T23:11:08.795Z,36.10
2022-12-31T23:13:58.529Z,30.92
2022-12-31T23:16:44.548Z,32.45
2022-12-31T23:19:29.731Z,29.63
2022-12-31T23:22:14.768Z,24.52
2022-12-31T23:24:41.234Z,134.65
2022-12-31T23:27:08.085Z,22.40
2022-12-31T23:29:41.963Z,25.00
2022-12-31T23:32:12.368Z,26.33
2022-12-31T23:34:38.884Z,28.50
2022-12-31T23:37:05.375Z,28.52
2022-12-31T23:39:31.887Z,26.60
2022-12-31T23:41:59.573Z,25.48
2022-12-31T23:44:26.673Z,28.33
2022-12-31T23:46:53.199Z,25.98
2022-12-31T23:49:19.659Z,28.52
2022-12-31T23:51:46.139Z,26.23
2022-12-31T23:54:15.852Z,26.05
2022-12-31T23:56:42.394Z,35.13
2022-12-31T23:59:09.321Z,25.80
